sensor_id;sensor_type;location;lat;lon;timestamp;P1;durP1;ratioP1;P2;durP2;ratioP2
17347;SDS011;8791;50.876;4.342;2023-06-10T00:00:06;6.72;;;6.07;;
17347;SDS011;8791;50.876;4.342;2023-06-10T00:02:37;9.20;;;5.75;;
17347;SDS011;8791;50.876;4.342;2023-06-10T00:05:04;7.72;;;6.43;;
17347;SDS011;8791;50.876;4.342;2023-06-10T00:07:32;8.60;;;6.00;;
17347;SDS011;8791;50.876;4.342;2023-06-10T00:10:04;8.10;;;7.30;;
17347;SDS011;8791;50.876;4.342;2023-06-10T00:12:31;6.70;;;5.95;;
17347;SDS011;8791;50.876;4.342;2023-06-10T00:15:02;6.60;;;6.00;;
17347;SDS011;8791;50.876;4.342;2023-06-10T00:17:29;6.22;;;5.68;;
17347;SDS011;8791;50.876;4.342;2023-06-10T00:19:57;6.90;;;6.30;;
17347;SDS011;8791;50.876;4.342;2023-06-10T00:22:24;8.45;;;6.10;;
17347;SDS011;8791;50.876;4.342;2023-06-10T00:24:54;10.13;;;6.45;;
17347;SDS011;8791;50.876;4.342;2023-06-10T00:27:23;7.38;;;5.90;;
17347;SDS011;8791;50.876;4.342;2023-06-10T00:29:56;11.18;;;6.82;;
17347;SDS011;8791;50.876;4.342;2023-06-10T00:32:23;8.40;;;6.18;;
17347;SDS011;8791;50.876;4.342;2023-06-10T00:34:49;9.23;;;6.05;;
17347;SDS011;8791;50.876;4.342;2023-06-10T00:37:16;8.23;;;6.75;;
17347;SDS011;8791;50.876;4.342;2023-06-10T00:39:43;13.90;;;7.03;;
17347;SDS011;8791;50.876;4.342;2023-06-10T00:42:10;6.47;;;5.97;;
17347;SDS011;8791;50.876;4.342;2023-06-10T00:44:38;11.50;;;6.75;;
17347;SDS011;8791;50.876;4.342;2023-06-10T00:47:05;7.78;;;6.93;;
17347;SDS011;8791;50.876;4.342;2023-06-10T00:49:33;7.25;;;6.55;;
17347;SDS011;8791;50.876;4.342;2023-06-10T00:52:01;10.05;;;7.15;;
17347;SDS011;8791;50.876;4.342;2023-06-10T00:54:29;9.38;;;6.65;;
17347;SDS011;8791;50.876;4.342;2023-06-10T00:56:56;7.43;;;6.25;;
17347;SDS011;8791;50.876;4.342;2023-06-10T00:59:23;7.60;;;6.47;;
17347;SDS011;8791;50.876;4.342;2023-06-10T01:01:52;9.68;;;6.68;;
17347;SDS011;8791;50.876;4.342;2023-06-10T01:04:20;7.90;;;6.45;;
17347;SDS011;8791;50.876;4.342;2023-06-10T01:06:50;11.60;;;6.55;;
17347;SDS011;8791;50.876;4.342;2023-06-10T01:09:24;10.90;;;6.88;;
17347;SDS011;8791;50.876;4.342;2023-06-10T01:12:01;8.93;;;6.60;;
17347;SDS011;8791;50.876;4.342;2023-06-10T01:14:35;7.45;;;6.72;;
17347;SDS011;8791;50.876;4.342;2023-06-10T01:17:06;9.35;;;6.85;;
17347;SDS011;8791;50.876;4.342;2023-06-10T01:19:34;8.25;;;6.05;;
17347;SDS011;8791;50.876;4.342;2023-06-10T01:22:03;13.00;;;7.18;;
17347;SDS011;8791;50.876;4.342;2023-06-10T01:24:30;8.48;;;6.30;;
17347;SDS011;8791;50.876;4.342;2023-06-10T01:26:59;11.73;;;6.75;;
17347;SDS011;8791;50.876;4.342;2023-06-10T01:29:33;8.45;;;6.78;;
17347;SDS011;8791;50.876;4.342;2023-06-10T01:32:08;10.20;;;6.32;;
17347;SDS011;8791;50.876;4.342;2023-06-10T01:34:40;9.95;;;6.05;;
17347;SDS011;8791;50.876;4.342;2023-06-10T01:37:11;6.95;;;6.40;;
17347;SDS011;8791;50.876;4.342;2023-06-10T01:39:41;10.00;;;6.70;;
17347;SDS011;8791;50.876;4.342;2023-06-10T01:42:09;13.13;;;6.95;;
17347;SDS011;8791;50.876;4.342;2023-06-10T01:44:38;17.42;;;7.32;;
17347;SDS011;8791;50.876;4.342;2023-06-10T01:47:06;13.45;;;7.38;;
17347;SDS011;8791;50.876;4.342;2023-06-10T01:49:33;10.57;;;6.35;;
17347;SDS011;8791;50.876;4.342;2023-06-10T01:52:00;7.65;;;6.95;;
17347;SDS011;8791;50.876;4.342;2023-06-10T01:54:29;8.02;;;6.53;;
17347;SDS011;8791;50.876;4.342;2023-06-10T01:56:56;12.88;;;7.13;;
17347;SDS011;8791;50.876;4.342;2023-06-10T01:59:23;8.93;;;6.95;;
17347;SDS011;8791;50.876;4.342;2023-06-10T02:01:50;11.77;;;7.55;;
17347;SDS011;8791;50.876;4.342;2023-06-10T02:04:16;8.70;;;7.85;;
17347;SDS011;8791;50.876;4.342;2023-06-10T02:06:43;8.80;;;7.47;;
17347;SDS011;8791;50.876;4.342;2023-06-10T02:09:10;12.38;;;6.53;;
17347;SDS011;8791;50.876;4.342;2023-06-10T02:11:38;8.00;;;7.10;;
17347;SDS011;8791;50.876;4.342;2023-06-10T02:14:05;7.50;;;6.80;;
17347;SDS011;8791;50.876;4.342;2023-06-10T02:16:32;9.75;;;7.30;;
17347;SDS011;8791;50.876;4.342;2023-06-10T02:18:59;11.20;;;7.15;;
17347;SDS011;8791;50.876;4.342;2023-06-10T02:21:25;9.77;;;7.22;;
17347;SDS011;8791;50.876;4.342;2023-06-10T02:23:52;9.63;;;7.32;;
17347;SDS011;8791;50.876;4.342;2023-06-10T02:26:19;8.68;;;6.75;;
17347;SDS011;8791;50.876;4.342;2023-06-10T02:28:47;9.10;;;7.30;;
17347;SDS011;8791;50.876;4.342;2023-06-10T02:31:14;8.23;;;7.43;;
17347;SDS011;8791;50.876;4.342;2023-06-10T02:33:43;12.18;;;7.10;;
17347;SDS011;8791;50.876;4.342;2023-06-10T02:36:10;7.97;;;7.15;;
17347;SDS011;8791;50.876;4.342;2023-06-10T02:38:38;8.18;;;7.47;;
17347;SDS011;8791;50.876;4.342;2023-06-10T02:41:05;8.98;;;7.10;;
17347;SDS011;8791;50.876;4.342;2023-06-10T02:43:32;8.20;;;7.28;;
17347;SDS011;8791;50.876;4.342;2023-06-10T02:46:00;16.15;;;7.32;;
17347;SDS011;8791;50.876;4.342;2023-06-10T02:48:27;7.20;;;6.47;;
17347;SDS011;8791;50.876;4.342;2023-06-10T02:50:54;14.55;;;7.32;;
17347;SDS011;8791;50.876;4.342;2023-06-10T02:53:22;10.70;;;7.50;;
17347;SDS011;8791;50.876;4.342;2023-06-10T02:55:48;10.30;;;7.50;;
17347;SDS011;8791;50.876;4.342;2023-06-10T02:58:15;15.10;;;7.75;;
17347;SDS011;8791;50.876;4.342;2023-06-10T03:00:42;8.18;;;7.10;;
17347;SDS011;8791;50.876;4.342;2023-06-10T03:03:11;9.80;;;7.80;;
17347;SDS011;8791;50.876;4.342;2023-06-10T03:05:38;11.00;;;7.82;;
17347;SDS011;8791;50.876;4.342;2023-06-10T03:08:05;8.88;;;7.80;;
17347;SDS011;8791;50.876;4.342;2023-06-10T03:10:32;11.95;;;7.28;;
17347;SDS011;8791;50.876;4.342;2023-06-10T03:12:59;8.35;;;7.47;;
17347;SDS011;8791;50.876;4.342;2023-06-10T03:15:25;13.60;;;7.70;;
17347;SDS011;8791;50.876;4.342;2023-06-10T03:17:54;11.43;;;7.80;;
17347;SDS011;8791;50.876;4.342;2023-06-10T03:20:22;12.05;;;8.23;;
17347;SDS011;8791;50.876;4.342;2023-06-10T03:22:50;12.98;;;7.85;;
17347;SDS011;8791;50.876;4.342;2023-06-10T03:25:17;8.88;;;7.97;;
17347;SDS011;8791;50.876;4.342;2023-06-10T03:27:46;12.13;;;8.25;;
17347;SDS011;8791;50.876;4.342;2023-06-10T03:30:13;13.68;;;8.02;;
17347;SDS011;8791;50.876;4.342;2023-06-10T03:32:40;10.25;;;7.90;;
17347;SDS011;8791;50.876;4.342;2023-06-10T03:35:07;10.02;;;8.20;;
17347;SDS011;8791;50.876;4.342;2023-06-10T03:37:36;17.88;;;8.20;;
17347;SDS011;8791;50.876;4.342;2023-06-10T03:40:03;10.75;;;8.48;;
17347;SDS011;8791;50.876;4.342;2023-06-10T03:42:30;13.38;;;8.93;;
17347;SDS011;8791;50.876;4.342;2023-06-10T03:44:57;12.68;;;9.02;;
17347;SDS011;8791;50.876;4.342;2023-06-10T03:47:24;11.85;;;8.93;;
17347;SDS011;8791;50.876;4.342;2023-06-10T03:49:51;12.40;;;8.60;;
17347;SDS011;8791;50.876;4.342;2023-06-10T03:52:19;15.05;;;9.68;;
17347;SDS011;8791;50.876;4.342;2023-06-10T03:54:47;14.48;;;8.43;;
17347;SDS011;8791;50.876;4.342;2023-06-10T03:57:14;11.57;;;8.90;;
17347;SDS011;8791;50.876;4.342;2023-06-10T03:59:43;13.98;;;8.90;;
17347;SDS011;8791;50.876;4.342;2023-06-10T04:02:10;9.55;;;8.63;;
17347;SDS011;8791;50.876;4.342;2023-06-10T04:04:37;16.95;;;9.05;;
17347;SDS011;8791;50.876;4.342;2023-06-10T04:07:04;10.05;;;8.40;;
17347;SDS011;8791;50.876;4.342;2023-06-10T04:09:31;17.27;;;9.15;;
17347;SDS011;8791;50.876;4.342;2023-06-10T04:11:59;10.82;;;9.10;;
17347;SDS011;8791;50.876;4.342;2023-06-10T04:14:27;12.40;;;8.70;;
17347;SDS011;8791;50.876;4.342;2023-06-10T04:16:54;14.55;;;9.80;;
17347;SDS011;8791;50.876;4.342;2023-06-10T04:19:21;14.45;;;9.35;;
17347;SDS011;8791;50.876;4.342;2023-06-10T04:21:48;17.15;;;8.57;;
17347;SDS011;8791;50.876;4.342;2023-06-10T04:24:15;12.27;;;8.95;;
17347;SDS011;8791;50.876;4.342;2023-06-10T04:26:42;16.08;;;8.95;;
17347;SDS011;8791;50.876;4.342;2023-06-10T04:29:10;14.70;;;9.23;;
17347;SDS011;8791;50.876;4.342;2023-06-10T04:31:37;12.38;;;9.75;;
17347;SDS011;8791;50.876;4.342;2023-06-10T04:34:04;13.50;;;8.43;;
17347;SDS011;8791;50.876;4.342;2023-06-10T04:36:32;14.02;;;9.10;;
17347;SDS011;8791;50.876;4.342;2023-06-10T04:38:59;10.48;;;8.80;;
17347;SDS011;8791;50.876;4.342;2023-06-10T04:41:27;13.20;;;8.40;;
17347;SDS011;8791;50.876;4.342;2023-06-10T04:43:54;11.85;;;8.93;;
17347;SDS011;8791;50.876;4.342;2023-06-10T04:46:22;11.43;;;9.07;;
17347;SDS011;8791;50.876;4.342;2023-06-10T04:48:49;13.40;;;9.48;;
17347;SDS011;8791;50.876;4.342;2023-06-10T04:51:16;17.45;;;9.25;;
17347;SDS011;8791;50.876;4.342;2023-06-10T04:53:43;10.90;;;9.27;;
17347;SDS011;8791;50.876;4.342;2023-06-10T04:56:10;10.15;;;9.25;;
17347;SDS011;8791;50.876;4.342;2023-06-10T04:58:36;12.55;;;9.27;;
17347;SDS011;8791;50.876;4.342;2023-06-10T05:01:03;13.88;;;9.30;;
17347;SDS011;8791;50.876;4.342;2023-06-10T05:03:32;13.35;;;9.20;;
17347;SDS011;8791;50.876;4.342;2023-06-10T05:05:59;12.95;;;9.38;;
17347;SDS011;8791;50.876;4.342;2023-06-10T05:08:26;12.85;;;9.00;;
17347;SDS011;8791;50.876;4.342;2023-06-10T05:10:52;10.20;;;9.10;;
17347;SDS011;8791;50.876;4.342;2023-06-10T05:13:19;14.23;;;9.43;;
17347;SDS011;8791;50.876;4.342;2023-06-10T05:15:46;10.63;;;9.52;;
17347;SDS011;8791;50.876;4.342;2023-06-10T05:18:13;13.15;;;9.45;;
17347;SDS011;8791;50.876;4.342;2023-06-10T05:20:41;13.85;;;9.40;;
17347;SDS011;8791;50.876;4.342;2023-06-10T05:23:08;10.10;;;8.65;;
17347;SDS011;8791;50.876;4.342;2023-06-10T05:25:35;12.00;;;9.45;;
17347;SDS011;8791;50.876;4.342;2023-06-10T05:28:02;11.18;;;9.05;;
17347;SDS011;8791;50.876;4.342;2023-06-10T05:30:29;13.88;;;9.27;;
17347;SDS011;8791;50.876;4.342;2023-06-10T05:32:56;10.30;;;8.55;;
17347;SDS011;8791;50.876;4.342;2023-06-10T05:35:22;10.35;;;9.25;;
17347;SDS011;8791;50.876;4.342;2023-06-10T05:37:51;12.55;;;8.93;;
17347;SDS011;8791;50.876;4.342;2023-06-10T05:40:18;12.32;;;9.13;;
17347;SDS011;8791;50.876;4.342;2023-06-10T05:42:45;14.20;;;10.68;;
17347;SDS011;8791;50.876;4.342;2023-06-10T05:45:11;12.63;;;9.25;;
17347;SDS011;8791;50.876;4.342;2023-06-10T05:47:38;12.98;;;9.73;;
17347;SDS011;8791;50.876;4.342;2023-06-10T05:50:06;14.23;;;9.98;;
17347;SDS011;8791;50.876;4.342;2023-06-10T05:52:34;10.55;;;9.32;;
17347;SDS011;8791;50.876;4.342;2023-06-10T05:55:03;14.85;;;9.35;;
17347;SDS011;8791;50.876;4.342;2023-06-10T05:57:30;10.57;;;9.57;;
17347;SDS011;8791;50.876;4.342;2023-06-10T05:59:57;18.25;;;9.82;;
17347;SDS011;8791;50.876;4.342;2023-06-10T06:02:24;14.43;;;9.65;;
17347;SDS011;8791;50.876;4.342;2023-06-10T06:04:51;13.82;;;10.45;;
17347;SDS011;8791;50.876;4.342;2023-06-10T06:07:18;17.00;;;9.50;;
17347;SDS011;8791;50.876;4.342;2023-06-10T06:09:45;10.07;;;8.90;;
17347;SDS011;8791;50.876;4.342;2023-06-10T06:12:14;12.55;;;8.77;;
17347;SDS011;8791;50.876;4.342;2023-06-10T06:14:41;10.00;;;8.25;;
17347;SDS011;8791;50.876;4.342;2023-06-10T06:17:08;10.50;;;8.48;;
17347;SDS011;8791;50.876;4.342;2023-06-10T06:19:35;9.80;;;8.75;;
17347;SDS011;8791;50.876;4.342;2023-06-10T06:22:02;13.68;;;9.18;;
17347;SDS011;8791;50.876;4.342;2023-06-10T06:24:29;10.70;;;9.15;;
17347;SDS011;8791;50.876;4.342;2023-06-10T06:26:56;18.95;;;8.80;;
17347;SDS011;8791;50.876;4.342;2023-06-10T06:29:24;21.90;;;10.00;;
17347;SDS011;8791;50.876;4.342;2023-06-10T06:31:51;14.57;;;8.98;;
17347;SDS011;8791;50.876;4.342;2023-06-10T06:34:18;14.63;;;8.50;;
17347;SDS011;8791;50.876;4.342;2023-06-10T06:36:44;11.85;;;8.50;;
17347;SDS011;8791;50.876;4.342;2023-06-10T06:39:11;8.40;;;7.45;;
17347;SDS011;8791;50.876;4.342;2023-06-10T06:41:38;10.80;;;7.88;;
17347;SDS011;8791;50.876;4.342;2023-06-10T06:44:05;13.38;;;8.75;;
17347;SDS011;8791;50.876;4.342;2023-06-10T06:46:34;10.20;;;7.82;;
17347;SDS011;8791;50.876;4.342;2023-06-10T06:49:00;8.88;;;7.97;;
17347;SDS011;8791;50.876;4.342;2023-06-10T06:51:27;10.93;;;7.90;;
17347;SDS011;8791;50.876;4.342;2023-06-10T06:53:54;11.98;;;8.05;;
17347;SDS011;8791;50.876;4.342;2023-06-10T06:56:23;11.77;;;7.78;;
17347;SDS011;8791;50.876;4.342;2023-06-10T06:58:51;11.10;;;6.95;;
17347;SDS011;8791;50.876;4.342;2023-06-10T07:01:18;9.40;;;7.22;;
17347;SDS011;8791;50.876;4.342;2023-06-10T07:03:46;8.02;;;7.28;;
17347;SDS011;8791;50.876;4.342;2023-06-10T07:06:13;10.40;;;6.70;;
17347;SDS011;8791;50.876;4.342;2023-06-10T07:08:40;12.70;;;7.00;;
17347;SDS011;8791;50.876;4.342;2023-06-10T07:11:07;9.38;;;6.50;;
17347;SDS011;8791;50.876;4.342;2023-06-10T07:13:34;12.40;;;7.05;;
17347;SDS011;8791;50.876;4.342;2023-06-10T07:16:01;9.80;;;6.82;;
17347;SDS011;8791;50.876;4.342;2023-06-10T07:18:28;7.00;;;6.30;;
17347;SDS011;8791;50.876;4.342;2023-06-10T07:20:56;7.63;;;7.03;;
17347;SDS011;8791;50.876;4.342;2023-06-10T07:23:23;7.88;;;6.60;;
17347;SDS011;8791;50.876;4.342;2023-06-10T07:25:50;11.02;;;6.47;;
17347;SDS011;8791;50.876;4.342;2023-06-10T07:28:17;8.05;;;7.22;;
17347;SDS011;8791;50.876;4.342;2023-06-10T07:30:44;7.55;;;6.50;;
17347;SDS011;8791;50.876;4.342;2023-06-10T07:33:11;14.50;;;6.80;;
17347;SDS011;8791;50.876;4.342;2023-06-10T07:35:37;8.23;;;6.82;;
17347;SDS011;8791;50.876;4.342;2023-06-10T07:38:06;7.32;;;6.25;;
17347;SDS011;8791;50.876;4.342;2023-06-10T07:40:33;8.25;;;6.50;;
17347;SDS011;8791;50.876;4.342;2023-06-10T07:42:59;6.72;;;6.13;;
17347;SDS011;8791;50.876;4.342;2023-06-10T07:45:26;7.30;;;6.68;;
17347;SDS011;8791;50.876;4.342;2023-06-10T07:47:53;7.50;;;6.40;;
17347;SDS011;8791;50.876;4.342;2023-06-10T07:50:20;6.78;;;6.18;;
17347;SDS011;8791;50.876;4.342;2023-06-10T07:52:47;9.60;;;6.78;;
17347;SDS011;8791;50.876;4.342;2023-06-10T07:55:16;14.05;;;6.72;;
17347;SDS011;8791;50.876;4.342;2023-06-10T07:57:43;7.85;;;7.15;;
17347;SDS011;8791;50.876;4.342;2023-06-10T08:00:10;7.18;;;6.47;;
17347;SDS011;8791;50.876;4.342;2023-06-10T08:02:38;6.93;;;6.20;;
17347;SDS011;8791;50.876;4.342;2023-06-10T08:05:05;6.97;;;6.35;;
17347;SDS011;8791;50.876;4.342;2023-06-10T08:07:32;13.48;;;9.93;;
17347;SDS011;8791;50.876;4.342;2023-06-10T08:09:59;10.32;;;7.35;;
17347;SDS011;8791;50.876;4.342;2023-06-10T08:12:27;8.77;;;6.45;;
17347;SDS011;8791;50.876;4.342;2023-06-10T08:14:54;6.90;;;6.20;;
17347;SDS011;8791;50.876;4.342;2023-06-10T08:17:21;9.10;;;7.32;;
17347;SDS011;8791;50.876;4.342;2023-06-10T08:19:48;8.65;;;5.90;;
17347;SDS011;8791;50.876;4.342;2023-06-10T08:22:15;10.27;;;6.05;;
17347;SDS011;8791;50.876;4.342;2023-06-10T08:24:42;6.55;;;5.97;;
17347;SDS011;8791;50.876;4.342;2023-06-10T08:27:09;6.70;;;6.00;;
17347;SDS011;8791;50.876;4.342;2023-06-10T08:29:37;8.40;;;6.00;;
17347;SDS011;8791;50.876;4.342;2023-06-10T08:32:05;6.95;;;5.85;;
17347;SDS011;8791;50.876;4.342;2023-06-10T08:34:33;7.30;;;5.45;;
17347;SDS011;8791;50.876;4.342;2023-06-10T08:37:00;8.68;;;6.03;;
17347;SDS011;8791;50.876;4.342;2023-06-10T08:39:27;6.85;;;6.25;;
17347;SDS011;8791;50.876;4.342;2023-06-10T08:42:00;6.30;;;5.70;;
17347;SDS011;8791;50.876;4.342;2023-06-10T08:44:35;9.45;;;5.97;;
17347;SDS011;8791;50.876;4.342;2023-06-10T08:47:06;12.70;;;6.00;;
17347;SDS011;8791;50.876;4.342;2023-06-10T08:49:38;8.25;;;5.90;;
17347;SDS011;8791;50.876;4.342;2023-06-10T08:52:07;9.43;;;5.90;;
17347;SDS011;8791;50.876;4.342;2023-06-10T08:54:37;18.73;;;6.00;;
17347;SDS011;8791;50.876;4.342;2023-06-10T08:57:07;10.30;;;5.78;;
17347;SDS011;8791;50.876;4.342;2023-06-10T08:59:34;21.70;;;6.40;;
17347;SDS011;8791;50.876;4.342;2023-06-10T09:02:02;9.77;;;5.80;;
17347;SDS011;8791;50.876;4.342;2023-06-10T09:04:33;7.72;;;5.55;;
17347;SDS011;8791;50.876;4.342;2023-06-10T09:07:00;5.65;;;5.15;;
17347;SDS011;8791;50.876;4.342;2023-06-10T09:09:28;6.63;;;5.38;;
17347;SDS011;8791;50.876;4.342;2023-06-10T09:11:56;5.32;;;4.80;;
17347;SDS011;8791;50.876;4.342;2023-06-10T09:14:23;8.90;;;5.32;;
17347;SDS011;8791;50.876;4.342;2023-06-10T09:16:50;7.57;;;4.95;;
17347;SDS011;8791;50.876;4.342;2023-06-10T09:19:18;5.57;;;5.13;;
17347;SDS011;8791;50.876;4.342;2023-06-10T09:21:46;7.88;;;7.15;;
17347;SDS011;8791;50.876;4.342;2023-06-10T09:24:13;6.80;;;5.43;;
17347;SDS011;8791;50.876;4.342;2023-06-10T09:26:40;5.70;;;5.10;;
17347;SDS011;8791;50.876;4.342;2023-06-10T09:29:07;6.10;;;5.20;;
17347;SDS011;8791;50.876;4.342;2023-06-10T09:31:37;5.85;;;4.97;;
17347;SDS011;8791;50.876;4.342;2023-06-10T09:34:06;11.13;;;4.78;;
17347;SDS011;8791;50.876;4.342;2023-06-10T09:36:35;9.05;;;4.60;;
17347;SDS011;8791;50.876;4.342;2023-06-10T09:39:02;5.07;;;4.57;;
17347;SDS011;8791;50.876;4.342;2023-06-10T09:41:33;8.73;;;4.63;;
17347;SDS011;8791;50.876;4.342;2023-06-10T09:44:00;5.40;;;5.00;;
17347;SDS011;8791;50.876;4.342;2023-06-10T09:46:30;6.78;;;4.78;;
17347;SDS011;8791;50.876;4.342;2023-06-10T09:48:58;8.70;;;4.85;;
17347;SDS011;8791;50.876;4.342;2023-06-10T09:51:25;18.52;;;5.20;;
17347;SDS011;8791;50.876;4.342;2023-06-10T09:53:54;7.60;;;5.13;;
17347;SDS011;8791;50.876;4.342;2023-06-10T09:56:21;10.05;;;5.20;;
17347;SDS011;8791;50.876;4.342;2023-06-10T09:58:58;9.05;;;4.50;;
17347;SDS011;8791;50.876;4.342;2023-06-10T10:01:25;5.10;;;4.60;;
17347;SDS011;8791;50.876;4.342;2023-06-10T10:03:52;5.20;;;4.70;;
17347;SDS011;8791;50.876;4.342;2023-06-10T10:06:19;6.03;;;5.50;;
17347;SDS011;8791;50.876;4.342;2023-06-10T10:08:47;6.40;;;5.57;;
17347;SDS011;8791;50.876;4.342;2023-06-10T10:11:17;6.22;;;4.40;;
17347;SDS011;8791;50.876;4.342;2023-06-10T10:13:44;5.30;;;4.63;;
17347;SDS011;8791;50.876;4.342;2023-06-10T10:16:14;5.63;;;5.10;;
17347;SDS011;8791;50.876;4.342;2023-06-10T10:18:43;7.28;;;5.50;;
17347;SDS011;8791;50.876;4.342;2023-06-10T10:21:13;5.78;;;4.55;;
17347;SDS011;8791;50.876;4.342;2023-06-10T10:23:51;9.20;;;4.75;;
17347;SDS011;8791;50.876;4.342;2023-06-10T10:26:21;8.38;;;5.20;;
17347;SDS011;8791;50.876;4.342;2023-06-10T10:28:53;4.80;;;4.38;;
17347;SDS011;8791;50.876;4.342;2023-06-10T10:31:30;5.10;;;4.60;;
17347;SDS011;8791;50.876;4.342;2023-06-10T10:34:02;14.35;;;5.63;;
17347;SDS011;8791;50.876;4.342;2023-06-10T10:36:32;5.50;;;4.78;;
17347;SDS011;8791;50.876;4.342;2023-06-10T10:38:59;10.20;;;4.97;;
17347;SDS011;8791;50.876;4.342;2023-06-10T10:41:29;10.57;;;5.05;;
17347;SDS011;8791;50.876;4.342;2023-06-10T10:43:58;7.50;;;4.70;;
17347;SDS011;8791;50.876;4.342;2023-06-10T10:46:26;4.97;;;4.57;;
17347;SDS011;8791;50.876;4.342;2023-06-10T10:48:53;5.90;;;4.57;;
17347;SDS011;8791;50.876;4.342;2023-06-10T10:51:22;6.47;;;4.53;;
17347;SDS011;8791;50.876;4.342;2023-06-10T10:56:40;5.72;;;3.63;;
17347;SDS011;8791;50.876;4.342;2023-06-10T10:59:46;11.52;;;5.28;;
17347;SDS011;8791;50.876;4.342;2023-06-10T11:02:32;6.03;;;4.32;;
17347;SDS011;8791;50.876;4.342;2023-06-10T11:05:04;6.75;;;4.60;;
17347;SDS011;8791;50.876;4.342;2023-06-10T11:07:33;4.70;;;4.30;;
17347;SDS011;8791;50.876;4.342;2023-06-10T11:10:02;8.30;;;4.72;;
17347;SDS011;8791;50.876;4.342;2023-06-10T11:12:43;8.25;;;4.07;;
17347;SDS011;8791;50.876;4.342;2023-06-10T11:15:20;6.85;;;4.15;;
17347;SDS011;8791;50.876;4.342;2023-06-10T11:18:08;8.48;;;4.57;;
17347;SDS011;8791;50.876;4.342;2023-06-10T11:20:50;4.75;;;4.25;;
17347;SDS011;8791;50.876;4.342;2023-06-10T11:23:27;7.07;;;4.32;;
17347;SDS011;8791;50.876;4.342;2023-06-10T11:26:13;4.90;;;4.40;;
17347;SDS011;8791;50.876;4.342;2023-06-10T11:29:03;5.35;;;4.85;;
17347;SDS011;8791;50.876;4.342;2023-06-10T11:31:40;10.15;;;4.10;;
17347;SDS011;8791;50.876;4.342;2023-06-10T11:34:11;4.78;;;4.15;;
17347;SDS011;8791;50.876;4.342;2023-06-10T11:36:39;9.13;;;4.63;;
17347;SDS011;8791;50.876;4.342;2023-06-10T11:39:10;7.45;;;4.35;;
17347;SDS011;8791;50.876;4.342;2023-06-10T11:41:37;5.82;;;4.47;;
17347;SDS011;8791;50.876;4.342;2023-06-10T11:44:09;7.28;;;4.95;;
17347;SDS011;8791;50.876;4.342;2023-06-10T11:46:37;5.10;;;4.70;;
17347;SDS011;8791;50.876;4.342;2023-06-10T11:49:04;5.38;;;4.93;;
17347;SDS011;8791;50.876;4.342;2023-06-10T11:51:32;6.82;;;4.85;;
17347;SDS011;8791;50.876;4.342;2023-06-10T11:54:01;6.65;;;4.65;;
17347;SDS011;8791;50.876;4.342;2023-06-10T11:56:29;11.32;;;4.50;;
17347;SDS011;8791;50.876;4.342;2023-06-10T11:58:57;9.05;;;5.13;;
17347;SDS011;8791;50.876;4.342;2023-06-10T12:01:31;12.00;;;4.35;;
17347;SDS011;8791;50.876;4.342;2023-06-10T12:03:59;7.10;;;4.72;;
17347;SDS011;8791;50.876;4.342;2023-06-10T12:06:27;7.72;;;4.53;;
17347;SDS011;8791;50.876;4.342;2023-06-10T12:09:03;7.93;;;4.75;;
17347;SDS011;8791;50.876;4.342;2023-06-10T12:11:30;8.38;;;4.95;;
17347;SDS011;8791;50.876;4.342;2023-06-10T12:13:57;8.75;;;5.30;;
17347;SDS011;8791;50.876;4.342;2023-06-10T12:16:24;5.82;;;5.43;;
17347;SDS011;8791;50.876;4.342;2023-06-10T12:19:00;5.75;;;5.18;;
17347;SDS011;8791;50.876;4.342;2023-06-10T12:21:28;7.07;;;4.95;;
17347;SDS011;8791;50.876;4.342;2023-06-10T12:23:59;6.03;;;5.28;;
17347;SDS011;8791;50.876;4.342;2023-06-10T12:26:38;9.55;;;6.93;;
17347;SDS011;8791;50.876;4.342;2023-06-10T12:29:15;9.85;;;5.95;;
17347;SDS011;8791;50.876;4.342;2023-06-10T12:31:52;7.80;;;5.60;;
17347;SDS011;8791;50.876;4.342;2023-06-10T12:34:35;7.78;;;4.90;;
17347;SDS011;8791;50.876;4.342;2023-06-10T12:37:04;5.60;;;5.10;;
17347;SDS011;8791;50.876;4.342;2023-06-10T12:39:33;8.02;;;5.20;;
17347;SDS011;8791;50.876;4.342;2023-06-10T12:42:00;8.30;;;5.18;;
17347;SDS011;8791;50.876;4.342;2023-06-10T12:44:30;6.00;;;5.40;;
17347;SDS011;8791;50.876;4.342;2023-06-10T12:46:59;8.65;;;4.80;;
17347;SDS011;8791;50.876;4.342;2023-06-10T12:49:26;11.82;;;5.22;;
17347;SDS011;8791;50.876;4.342;2023-06-10T12:51:54;9.55;;;5.57;;
17347;SDS011;8791;50.876;4.342;2023-06-10T12:54:21;9.98;;;5.65;;
17347;SDS011;8791;50.876;4.342;2023-06-10T12:56:48;5.05;;;4.65;;
17347;SDS011;8791;50.876;4.342;2023-06-10T12:59:15;6.05;;;4.63;;
17347;SDS011;8791;50.876;4.342;2023-06-10T13:01:42;9.02;;;5.20;;
17347;SDS011;8791;50.876;4.342;2023-06-10T13:04:09;6.20;;;5.47;;
17347;SDS011;8791;50.876;4.342;2023-06-10T13:06:36;7.03;;;5.03;;
17347;SDS011;8791;50.876;4.342;2023-06-10T13:09:06;6.93;;;5.30;;
17347;SDS011;8791;50.876;4.342;2023-06-10T13:11:33;8.73;;;5.40;;
17347;SDS011;8791;50.876;4.342;2023-06-10T13:14:01;6.05;;;5.07;;
17347;SDS011;8791;50.876;4.342;2023-06-10T13:16:29;11.40;;;5.43;;
17347;SDS011;8791;50.876;4.342;2023-06-10T13:18:56;6.32;;;5.53;;
17347;SDS011;8791;50.876;4.342;2023-06-10T13:21:23;5.60;;;5.05;;
17347;SDS011;8791;50.876;4.342;2023-06-10T13:23:50;5.25;;;4.75;;
17347;SDS011;8791;50.876;4.342;2023-06-10T13:26:19;11.65;;;5.57;;
17347;SDS011;8791;50.876;4.342;2023-06-10T13:28:46;8.00;;;5.18;;
17347;SDS011;8791;50.876;4.342;2023-06-10T13:31:13;5.80;;;5.13;;
17347;SDS011;8791;50.876;4.342;2023-06-10T13:33:40;7.05;;;5.30;;
17347;SDS011;8791;50.876;4.342;2023-06-10T13:36:08;7.93;;;5.15;;
17347;SDS011;8791;50.876;4.342;2023-06-10T13:38:35;6.85;;;5.30;;
17347;SDS011;8791;50.876;4.342;2023-06-10T13:41:02;9.98;;;5.18;;
17347;SDS011;8791;50.876;4.342;2023-06-10T13:43:30;6.75;;;5.28;;
17347;SDS011;8791;50.876;4.342;2023-06-10T13:45:57;12.85;;;5.10;;
17347;SDS011;8791;50.876;4.342;2023-06-10T13:48:25;9.48;;;5.45;;
17347;SDS011;8791;50.876;4.342;2023-06-10T13:50:52;6.57;;;4.88;;
17347;SDS011;8791;50.876;4.342;2023-06-10T13:53:18;9.45;;;5.50;;
17347;SDS011;8791;50.876;4.342;2023-06-10T13:55:45;5.43;;;4.90;;
17347;SDS011;8791;50.876;4.342;2023-06-10T13:58:12;7.25;;;5.15;;
17347;SDS011;8791;50.876;4.342;2023-06-10T14:00:40;5.40;;;4.45;;
17347;SDS011;8791;50.876;4.342;2023-06-10T14:03:07;8.70;;;5.18;;
17347;SDS011;8791;50.876;4.342;2023-06-10T14:05:34;7.82;;;5.07;;
17347;SDS011;8791;50.876;4.342;2023-06-10T14:08:01;4.75;;;4.28;;
17347;SDS011;8791;50.876;4.342;2023-06-10T14:10:28;12.00;;;5.55;;
17347;SDS011;8791;50.876;4.342;2023-06-10T14:12:55;6.22;;;5.57;;
17347;SDS011;8791;50.876;4.342;2023-06-10T14:15:22;12.13;;;5.63;;
17347;SDS011;8791;50.876;4.342;2023-06-10T14:17:50;10.90;;;5.40;;
17347;SDS011;8791;50.876;4.342;2023-06-10T14:20:17;11.77;;;5.40;;
17347;SDS011;8791;50.876;4.342;2023-06-10T14:22:44;8.38;;;5.22;;
17347;SDS011;8791;50.876;4.342;2023-06-10T14:25:11;5.63;;;4.50;;
17347;SDS011;8791;50.876;4.342;2023-06-10T14:27:38;5.07;;;4.70;;
17347;SDS011;8791;50.876;4.342;2023-06-10T14:30:05;8.77;;;5.35;;
17347;SDS011;8791;50.876;4.342;2023-06-10T14:32:33;5.68;;;5.18;;
17347;SDS011;8791;50.876;4.342;2023-06-10T14:35:01;6.90;;;5.07;;
17347;SDS011;8791;50.876;4.342;2023-06-10T14:37:28;11.05;;;5.75;;
17347;SDS011;8791;50.876;4.342;2023-06-10T14:39:55;6.55;;;5.25;;
17347;SDS011;8791;50.876;4.342;2023-06-10T14:42:22;5.85;;;5.32;;
17347;SDS011;8791;50.876;4.342;2023-06-10T14:44:49;8.52;;;6.43;;
17347;SDS011;8791;50.876;4.342;2023-06-10T14:47:16;7.40;;;5.70;;
17347;SDS011;8791;50.876;4.342;2023-06-10T14:49:43;7.18;;;5.32;;
17347;SDS011;8791;50.876;4.342;2023-06-10T14:52:11;14.10;;;5.55;;
17347;SDS011;8791;50.876;4.342;2023-06-10T14:54:38;6.38;;;5.03;;
17347;SDS011;8791;50.876;4.342;2023-06-10T14:57:05;7.75;;;5.75;;
17347;SDS011;8791;50.876;4.342;2023-06-10T14:59:32;9.48;;;5.75;;
17347;SDS011;8791;50.876;4.342;2023-06-10T15:02:00;5.53;;;5.05;;
17347;SDS011;8791;50.876;4.342;2023-06-10T15:04:27;7.20;;;5.18;;